createdAt,value
2018-08-23T00:01:11.986Z,96980
2018-08-23T00:02:27.892Z,96984
2018-08-23T00:03:43.884Z,96983
2018-08-23T00:04:59.687Z,96984
2018-08-23T00:06:15.569Z,96994
2018-08-23T00:07:31.549Z,96988
2018-08-23T00:08:48.426Z,96986
2018-08-23T00:10:04.308Z,96986
2018-08-23T00:11:20.238Z,96986
2018-08-23T00:12:36.116Z,96986
2018-08-23T00:13:52.037Z,96987
2018-08-23T00:15:07.901Z,96985
2018-08-23T00:16:23.815Z,96986
2018-08-23T00:17:39.711Z,96988
2018-08-23T00:18:55.657Z,96987
2018-08-23T00:20:11.566Z,96988
2018-08-23T00:21:27.513Z,96990
2018-08-23T00:22:43.506Z,96986
2018-08-23T00:23:59.392Z,96985
2018-08-23T00:25:15.284Z,96985
2018-08-23T00:26:31.201Z,96987
2018-08-23T00:27:47.117Z,96983
2018-08-23T00:29:03.049Z,96984
2018-08-23T00:30:19.066Z,96984
2018-08-23T00:31:35.208Z,96987
2018-08-23T00:32:51.132Z,96986
2018-08-23T00:34:07.055Z,96984
2018-08-23T00:35:22.922Z,96985
2018-08-23T00:36:38.853Z,96992
2018-08-23T00:37:54.773Z,96993
2018-08-23T00:39:10.676Z,96997
2018-08-23T00:40:26.551Z,96996
2018-08-23T00:41:42.465Z,96992
2018-08-23T00:42:58.375Z,96992
2018-08-23T00:44:14.279Z,96991
2018-08-23T00:45:30.201Z,96991
2018-08-23T00:46:46.249Z,96989
2018-08-23T00:48:02.235Z,96991
2018-08-23T00:49:18.134Z,96992
2018-08-23T00:50:34.025Z,96995
2018-08-23T00:51:50.047Z,96996
2018-08-23T00:53:05.989Z,96994
2018-08-23T00:54:21.884Z,96992
2018-08-23T00:55:37.816Z,96994
2018-08-23T00:56:53.738Z,96991
2018-08-23T00:58:09.684Z,96989
2018-08-23T00:59:25.574Z,96991
2018-08-23T01:00:42.458Z,96993
2018-08-23T01:01:58.329Z,96991
2018-08-23T01:03:14.463Z,96988
2018-08-23T01:04:30.554Z,96988
2018-08-23T01:05:46.487Z,96992
2018-08-23T01:07:02.389Z,96987
2018-08-23T01:08:18.328Z,96984
2018-08-23T01:09:34.235Z,96980
2018-08-23T01:10:50.142Z,96981
2018-08-23T01:12:06.084Z,96984
2018-08-23T01:13:22.182Z,96976
2018-08-23T01:14:38.207Z,96973
2018-08-23T01:15:54.095Z,96971
2018-08-23T01:17:10.096Z,96968
2018-08-23T01:18:25.993Z,96967
2018-08-23T01:19:41.877Z,96966
2018-08-23T01:20:57.813Z,96966
2018-08-23T01:22:13.713Z,96967
2018-08-23T01:23:29.763Z,96966
2018-08-23T01:24:45.655Z,96964
2018-08-23T01:26:01.633Z,96966
2018-08-23T01:27:17.542Z,96968
2018-08-23T01:28:33.506Z,96966
2018-08-23T01:29:49.452Z,96964
2018-08-23T01:31:05.418Z,96963
2018-08-23T01:32:21.335Z,96963
2018-08-23T01:33:37.266Z,96957
2018-08-23T01:34:53.184Z,96961
2018-08-23T01:36:09.085Z,96957
2018-08-23T01:37:24.997Z,96955
2018-08-23T01:38:40.912Z,96955
2018-08-23T01:39:56.824Z,96946
2018-08-23T01:41:12.736Z,96951
2018-08-23T01:42:28.632Z,96945
2018-08-23T01:43:44.567Z,96949
2018-08-23T01:45:00.463Z,96949
2018-08-23T01:46:16.342Z,96951
2018-08-23T01:47:32.287Z,96945
2018-08-23T01:48:48.233Z,96945
2018-08-23T01:50:04.127Z,96947
2018-08-23T01:51:20.126Z,96939
2018-08-23T01:52:36.048Z,96935
2018-08-23T01:53:52.013Z,96939
2018-08-23T01:55:08.025Z,96940
2018-08-23T01:56:23.995Z,96945
2018-08-23T01:57:39.894Z,96946
2018-08-23T01:58:55.897Z,96944
2018-08-23T02:00:11.851Z,96942
2018-08-23T02:01:27.776Z,96937
2018-08-23T02:02:43.705Z,96940
2018-08-23T02:03:59.647Z,96940
2018-08-23T02:05:15.552Z,96941
2018-08-23T02:06:31.538Z,96941
2018-08-23T02:07:47.548Z,96939
2018-08-23T02:09:03.444Z,96938
2018-08-23T02:10:19.346Z,96934
2018-08-23T02:11:35.251Z,96940
2018-08-23T02:12:51.132Z,96933
2018-08-23T02:14:06.991Z,96936
2018-08-23T02:15:22.939Z,96938
2018-08-23T02:16:38.912Z,96935
2018-08-23T02:17:54.797Z,96940
2018-08-23T02:19:10.709Z,96938
2018-08-23T02:20:26.643Z,96939
2018-08-23T02:21:42.498Z,96938
2018-08-23T02:22:58.425Z,96939
2018-08-23T02:24:14.362Z,96939
2018-08-23T02:25:30.293Z,96940
2018-08-23T02:26:46.234Z,96942
2018-08-23T02:28:02.142Z,96934
2018-08-23T02:29:19.037Z,96936
2018-08-23T02:30:34.947Z,96935
2018-08-23T02:31:50.850Z,96934
2018-08-23T02:33:06.903Z,96935
2018-08-23T02:34:22.772Z,96932
2018-08-23T02:35:38.701Z,96929
2018-08-23T02:36:54.621Z,96934
2018-08-23T02:38:10.622Z,96936
2018-08-23T02:39:26.441Z,96938
2018-08-23T02:40:42.399Z,96936
2018-08-23T02:41:58.323Z,96934
2018-08-23T02:43:14.239Z,96935
2018-08-23T02:44:30.231Z,96938
2018-08-23T02:45:46.192Z,96942
2018-08-23T02:47:02.132Z,96940
2018-08-23T02:48:18.155Z,96942
2018-08-23T02:49:34.110Z,96939
2018-08-23T02:50:50.009Z,96940
2018-08-23T02:52:05.976Z,96939
2018-08-23T02:53:22.046Z,96942
2018-08-23T02:54:38.011Z,96946
2018-08-23T02:55:53.916Z,96946
2018-08-23T02:57:09.879Z,96945
2018-08-23T02:58:25.884Z,96949
2018-08-23T02:59:41.843Z,96946
2018-08-23T03:00:57.859Z,96945
2018-08-23T03:02:13.978Z,96943
2018-08-23T03:03:29.988Z,96944
2018-08-23T03:04:46.065Z,96942
2018-08-23T03:06:01.966Z,96943
2018-08-23T03:07:17.972Z,96942
2018-08-23T03:08:33.884Z,96941
2018-08-23T03:09:49.818Z,96938
2018-08-23T03:11:05.733Z,96945
2018-08-23T03:12:21.653Z,96937
2018-08-23T03:13:37.557Z,96937
2018-08-23T03:14:53.574Z,96937
2018-08-23T03:16:09.552Z,96938
2018-08-23T03:17:25.503Z,96939
2018-08-23T03:18:42.402Z,96936
2018-08-23T03:19:58.322Z,96938
2018-08-23T03:21:14.218Z,96933
2018-08-23T03:22:30.156Z,96933
2018-08-23T03:23:46.014Z,96934
2018-08-23T03:25:02.001Z,96934
2018-08-23T03:26:17.896Z,96938
2018-08-23T03:27:33.931Z,96934
2018-08-23T03:28:49.821Z,96932
2018-08-23T03:30:05.730Z,96930
2018-08-23T03:31:21.625Z,96931
2018-08-23T03:32:37.544Z,96930
2018-08-23T03:33:53.510Z,96929
2018-08-23T03:35:09.381Z,96930
2018-08-23T03:36:25.356Z,96927
2018-08-23T03:37:41.291Z,96923
2018-08-23T03:38:57.231Z,96923
2018-08-23T03:40:13.128Z,96921
2018-08-23T03:41:29.001Z,96916
2018-08-23T03:42:44.881Z,96916
2018-08-23T03:44:00.891Z,96915
2018-08-23T03:45:16.800Z,96916
2018-08-23T03:46:32.729Z,96919
2018-08-23T03:47:48.646Z,96919
2018-08-23T03:49:04.574Z,96923
2018-08-23T03:50:20.548Z,96915
2018-08-23T03:51:36.438Z,96911
2018-08-23T03:52:52.397Z,96914
2018-08-23T03:54:08.498Z,96909
2018-08-23T03:55:24.416Z,96918
2018-08-23T03:56:40.456Z,96916
2018-08-23T03:57:56.383Z,96914
2018-08-23T03:59:12.261Z,96917
2018-08-23T04:00:28.178Z,96918
2018-08-23T04:01:44.168Z,96916
2018-08-23T04:03:00.128Z,96915
2018-08-23T04:04:16.041Z,96914
2018-08-23T04:05:32.057Z,96910
2018-08-23T04:06:47.975Z,96912
2018-08-23T04:08:03.851Z,96910
2018-08-23T04:09:19.872Z,96906
2018-08-23T04:10:35.802Z,96908
2018-08-23T04:11:51.739Z,96909
2018-08-23T04:13:07.631Z,96909
2018-08-23T04:14:23.573Z,96916
2018-08-23T04:15:40.471Z,96915
2018-08-23T04:16:56.379Z,96918
2018-08-23T04:18:12.286Z,96919
2018-08-23T04:19:28.241Z,96918
2018-08-23T04:20:44.158Z,96916
2018-08-23T04:22:00.151Z,96918
2018-08-23T04:23:16.094Z,96920
2018-08-23T04:24:32.021Z,96919
2018-08-23T04:25:47.927Z,96920
2018-08-23T04:27:03.847Z,96919
2018-08-23T04:28:19.782Z,96915
2018-08-23T04:29:35.679Z,96916
2018-08-23T04:30:51.584Z,96912
2018-08-23T04:32:07.614Z,96912
2018-08-23T04:33:23.537Z,96910
2018-08-23T04:34:39.537Z,96912
2018-08-23T04:35:55.494Z,96915
2018-08-23T04:37:11.461Z,96914
2018-08-23T04:38:27.371Z,96913
2018-08-23T04:39:43.433Z,96914
2018-08-23T04:40:59.441Z,96919
2018-08-23T04:42:15.403Z,96917
2018-08-23T04:43:31.320Z,96919
2018-08-23T04:44:47.220Z,96918
2018-08-23T04:46:03.126Z,96917
2018-08-23T04:47:19.024Z,96916
2018-08-23T04:48:35.022Z,96912
2018-08-23T04:49:50.974Z,96911
2018-08-23T04:51:06.853Z,96918
2018-08-23T04:52:22.848Z,96916
2018-08-23T04:53:38.875Z,96918
2018-08-23T04:54:54.847Z,96921
2018-08-23T04:56:10.745Z,96921
2018-08-23T04:57:26.749Z,96927
2018-08-23T04:58:42.707Z,96920
2018-08-23T04:59:58.577Z,96921
2018-08-23T05:01:14.649Z,96919
2018-08-23T05:02:30.657Z,96921
2018-08-23T05:03:46.590Z,96924
2018-08-23T05:05:02.521Z,96920
2018-08-23T05:06:18.482Z,96921
2018-08-23T05:07:34.457Z,96920
2018-08-23T05:08:50.396Z,96925
2018-08-23T05:10:06.343Z,96923
2018-08-23T05:11:23.418Z,96920
2018-08-23T05:12:39.366Z,96925
2018-08-23T05:13:55.301Z,96925
2018-08-23T05:15:11.214Z,96928
2018-08-23T05:16:27.147Z,96930
2018-08-23T05:17:43.047Z,96928
2018-08-23T05:18:58.958Z,96928
2018-08-23T05:21:56.559Z,96930
2018-08-23T05:23:12.560Z,96934
2018-08-23T05:24:28.478Z,96934
2018-08-23T05:25:44.519Z,96936
2018-08-23T05:27:00.534Z,96934
2018-08-23T05:28:16.695Z,96931
2018-08-23T05:29:32.669Z,96931
2018-08-23T05:30:48.782Z,96930
2018-08-23T05:32:04.695Z,96926
2018-08-23T05:33:20.622Z,96926
2018-08-23T05:34:36.517Z,96926
2018-08-23T05:35:52.420Z,96927
2018-08-23T05:37:08.496Z,96927
2018-08-23T05:38:24.400Z,96930
2018-08-23T05:39:40.341Z,96932
2018-08-23T05:40:56.239Z,96930
2018-08-23T05:42:12.175Z,96932
2018-08-23T05:43:28.208Z,96927
2018-08-23T05:44:44.144Z,96925
2018-08-23T05:46:00.057Z,96932
2018-08-23T05:47:15.965Z,96934
2018-08-23T05:48:31.856Z,96937
2018-08-23T05:49:47.894Z,96936
2018-08-23T05:51:03.821Z,96942
2018-08-23T05:52:19.886Z,96940
2018-08-23T05:53:35.938Z,96934
2018-08-23T05:54:51.826Z,96937
2018-08-23T05:56:07.771Z,96943
2018-08-23T05:57:23.747Z,96940
2018-08-23T05:58:39.645Z,96942
2018-08-23T05:59:55.551Z,96944
2018-08-23T06:01:11.496Z,96941
2018-08-23T06:02:27.463Z,96943
2018-08-23T06:03:43.375Z,96943
2018-08-23T06:04:59.382Z,96945
2018-08-23T06:06:15.346Z,96943
2018-08-23T06:07:31.281Z,96939
2018-08-23T06:08:47.249Z,96935
2018-08-23T06:10:03.154Z,96937
2018-08-23T06:11:19.129Z,96936
2018-08-23T06:12:35.024Z,96940
2018-08-23T06:13:50.907Z,96941
2018-08-23T06:15:06.858Z,96938
2018-08-23T06:16:22.790Z,96930
2018-08-23T06:17:38.785Z,96929
2018-08-23T06:18:54.814Z,96931
2018-08-23T06:20:10.870Z,96930
2018-08-23T06:21:26.737Z,96926
2018-08-23T06:22:42.698Z,96933
2018-08-23T06:23:58.640Z,96927
2018-08-23T06:25:14.581Z,96926
2018-08-23T06:26:30.481Z,96929
2018-08-23T06:27:46.450Z,96924
2018-08-23T06:29:02.362Z,96926
2018-08-23T06:30:18.279Z,96926
2018-08-23T06:31:34.316Z,96926
2018-08-23T06:32:50.252Z,96925
2018-08-23T06:34:06.194Z,96926
2018-08-23T06:35:22.166Z,96925
2018-08-23T06:36:38.058Z,96924
2018-08-23T06:37:53.952Z,96923
2018-08-23T06:39:09.877Z,96926
2018-08-23T06:40:25.842Z,96922
2018-08-23T06:41:41.745Z,96925
2018-08-23T06:42:57.663Z,96922
2018-08-23T06:44:13.577Z,96918
2018-08-23T06:45:29.471Z,96917
2018-08-23T06:46:45.382Z,96920
2018-08-23T06:48:01.385Z,96919
2018-08-23T06:49:17.283Z,96920
2018-08-23T06:50:33.226Z,96920
2018-08-23T06:51:49.103Z,96921
2018-08-23T06:53:05.030Z,96923
2018-08-23T06:54:20.907Z,96925
2018-08-23T06:55:36.821Z,96927
2018-08-23T06:56:52.753Z,96925
2018-08-23T06:58:08.635Z,96927
2018-08-23T06:59:24.581Z,96927
2018-08-23T07:00:40.528Z,96925
2018-08-23T07:01:56.463Z,96920
2018-08-23T07:03:12.464Z,96919
2018-08-23T07:04:28.420Z,96917
2018-08-23T07:05:44.395Z,96917
2018-08-23T07:07:00.380Z,96919
2018-08-23T07:08:16.248Z,96913
2018-08-23T07:09:32.166Z,96917
2018-08-23T07:10:48.071Z,96918
2018-08-23T07:12:04.031Z,96917
2018-08-23T07:13:19.950Z,96919
2018-08-23T07:14:35.836Z,96921
2018-08-23T07:15:51.924Z,96921
2018-08-23T07:17:07.923Z,96920
2018-08-23T07:18:23.836Z,96917
2018-08-23T07:19:39.738Z,96920
2018-08-23T07:20:55.622Z,96921
2018-08-23T07:22:11.653Z,96917
2018-08-23T07:23:27.546Z,96920
2018-08-23T07:24:43.510Z,96914
2018-08-23T07:25:59.411Z,96914
2018-08-23T07:27:15.366Z,96915
2018-08-23T07:28:31.294Z,96912
2018-08-23T07:29:47.197Z,96909
2018-08-23T07:31:03.095Z,96916
2018-08-23T07:32:19.026Z,96917
2018-08-23T07:33:34.912Z,96913
2018-08-23T07:34:50.813Z,96919
2018-08-23T07:36:06.729Z,96917
2018-08-23T07:37:22.693Z,96915
2018-08-23T07:38:38.603Z,96921
2018-08-23T07:39:54.495Z,96919
2018-08-23T07:41:10.384Z,96926
2018-08-23T07:42:26.374Z,96924
2018-08-23T07:43:42.345Z,96923
2018-08-23T07:44:59.250Z,96924
2018-08-23T07:46:15.130Z,96924
2018-08-23T07:47:31.131Z,96923
2018-08-23T07:48:47.163Z,96928
2018-08-23T07:50:03.056Z,96929
2018-08-23T07:51:19.024Z,96922
2018-08-23T07:52:35.051Z,96926
2018-08-23T07:53:50.935Z,96927
2018-08-23T07:55:06.835Z,96927
2018-08-23T07:56:22.743Z,96931
2018-08-23T07:57:38.761Z,96928
2018-08-23T07:58:54.696Z,96924
2018-08-23T08:00:10.607Z,96931
2018-08-23T08:01:26.561Z,96925
2018-08-23T08:02:42.479Z,96927
2018-08-23T08:03:58.390Z,96928
2018-08-23T08:05:14.304Z,96929
2018-08-23T08:06:31.249Z,96929
2018-08-23T08:07:47.201Z,96929
2018-08-23T08:09:03.128Z,96931
2018-08-23T08:10:19.068Z,96930
2018-08-23T08:11:34.999Z,96935
2018-08-23T08:12:51.012Z,96933
2018-08-23T08:14:06.956Z,96932
2018-08-23T08:15:22.945Z,96932
2018-08-23T08:16:38.889Z,96940
2018-08-23T08:17:54.844Z,96941
2018-08-23T08:19:11.778Z,96936
2018-08-23T08:20:27.654Z,96939
2018-08-23T08:21:43.695Z,96937
2018-08-23T08:22:59.537Z,96934
2018-08-23T08:24:15.457Z,96935
2018-08-23T08:25:31.389Z,96935
2018-08-23T08:26:47.311Z,96933
2018-08-23T08:28:03.241Z,96937
2018-08-23T08:29:19.145Z,96933
2018-08-23T08:30:35.185Z,96937
2018-08-23T08:31:51.216Z,96934
2018-08-23T08:33:07.137Z,96934
2018-08-23T08:34:23.098Z,96927
2018-08-23T08:35:39.021Z,96936
2018-08-23T08:36:55.038Z,96928
2018-08-23T08:38:10.949Z,96928
2018-08-23T08:39:27.022Z,96927
2018-08-23T08:40:42.996Z,96925
2018-08-23T08:41:58.949Z,96933
2018-08-23T08:43:14.858Z,96930
2018-08-23T08:44:30.941Z,96928
2018-08-23T08:45:46.848Z,96933
2018-08-23T08:47:02.778Z,96930
2018-08-23T08:48:18.684Z,96927
2018-08-23T08:49:34.667Z,96928
2018-08-23T08:50:50.547Z,96926
2018-08-23T08:52:06.437Z,96927
2018-08-23T08:53:22.429Z,96931
2018-08-23T08:54:38.393Z,96926
2018-08-23T08:55:54.281Z,96928
2018-08-23T08:57:10.215Z,96925
2018-08-23T08:58:26.171Z,96923
2018-08-23T08:59:42.160Z,96920
2018-08-23T09:00:58.096Z,96920
2018-08-23T09:02:14.005Z,96918
2018-08-23T09:03:29.909Z,96917
2018-08-23T09:04:45.913Z,96915
2018-08-23T09:06:01.834Z,96915
2018-08-23T09:07:17.709Z,96917
2018-08-23T09:08:33.595Z,96913
2018-08-23T09:09:49.531Z,96916
2018-08-23T09:11:05.586Z,96913
2018-08-23T09:12:21.600Z,96909
2018-08-23T09:13:37.517Z,96915
2018-08-23T09:14:53.601Z,96909
2018-08-23T09:16:09.600Z,96907
2018-08-23T09:17:25.530Z,96910
2018-08-23T09:18:41.507Z,96911
2018-08-23T09:19:57.389Z,96906
2018-08-23T09:21:13.346Z,96912
2018-08-23T09:22:29.280Z,96912
2018-08-23T09:23:45.348Z,96908
2018-08-23T09:25:01.276Z,96905
2018-08-23T09:26:17.253Z,96902
2018-08-23T09:27:33.288Z,96901
2018-08-23T09:28:49.212Z,96903
2018-08-23T09:30:05.127Z,96900
2018-08-23T09:31:21.097Z,96897
2018-08-23T09:32:37.098Z,96901
2018-08-23T09:33:53.132Z,96898
2018-08-23T09:35:09.195Z,96897
2018-08-23T09:36:25.030Z,96899
2018-08-23T09:37:40.993Z,96897
2018-08-23T09:38:56.905Z,96907
2018-08-23T09:40:12.802Z,96897
2018-08-23T09:41:28.777Z,96904
2018-08-23T09:42:44.704Z,96904
2018-08-23T09:44:00.624Z,96901
2018-08-23T09:45:16.556Z,96906
2018-08-23T09:46:32.508Z,96902
2018-08-23T09:47:48.468Z,96902
2018-08-23T09:49:04.445Z,96906
2018-08-23T09:50:20.537Z,96907
2018-08-23T09:51:36.497Z,96899
2018-08-23T09:52:52.424Z,96898
2018-08-23T09:54:08.373Z,96898
2018-08-23T09:55:24.281Z,96893
2018-08-23T09:56:40.380Z,96891
2018-08-23T09:57:56.193Z,96895
2018-08-23T09:59:12.119Z,96893
2018-08-23T10:00:28.069Z,96891
2018-08-23T10:01:43.980Z,96888
2018-08-23T10:02:59.920Z,96889
2018-08-23T10:04:15.872Z,96886
2018-08-23T10:05:31.732Z,96880
2018-08-23T10:06:47.733Z,96877
2018-08-23T10:08:03.614Z,96873
2018-08-23T10:09:19.543Z,96874
2018-08-23T10:10:35.555Z,96875
2018-08-23T10:11:51.537Z,96875
2018-08-23T10:13:07.343Z,96873
2018-08-23T10:14:23.311Z,96868
2018-08-23T10:15:39.257Z,96872
2018-08-23T10:16:55.275Z,96867
2018-08-23T10:18:11.165Z,96868
2018-08-23T10:19:27.118Z,96864
2018-08-23T10:20:43.057Z,96866
2018-08-23T10:21:59.118Z,96865
2018-08-23T10:23:15.032Z,96867
2018-08-23T10:24:30.989Z,96870
2018-08-23T10:25:46.879Z,96862
2018-08-23T10:27:02.895Z,96864
2018-08-23T10:28:18.769Z,96868
2018-08-23T10:29:34.662Z,96863
2018-08-23T10:30:50.595Z,96866
2018-08-23T10:32:06.533Z,96862
2018-08-23T10:33:22.432Z,96862
2018-08-23T10:34:38.339Z,96865
2018-08-23T10:35:54.271Z,96863
2018-08-23T10:37:10.212Z,96860
2018-08-23T10:38:26.160Z,96862
2018-08-23T10:39:42.189Z,96857
2018-08-23T10:40:58.115Z,96858
2018-08-23T10:42:14.195Z,96859
2018-08-23T10:43:30.098Z,96855
2018-08-23T10:44:46.071Z,96854
2018-08-23T10:46:02.072Z,96856
2018-08-23T10:47:18.077Z,96851
2018-08-23T10:48:33.998Z,96851
2018-08-23T10:49:50.013Z,96846
2018-08-23T10:51:06.025Z,96846
2018-08-23T10:52:21.921Z,96849
2018-08-23T10:53:37.859Z,96847
2018-08-23T10:54:53.820Z,96844
2018-08-23T10:56:10.730Z,96846
2018-08-23T10:57:26.696Z,96846
2018-08-23T10:58:42.653Z,96843
2018-08-23T10:59:58.606Z,96843
2018-08-23T11:01:14.553Z,96847
2018-08-23T11:02:30.502Z,96842
2018-08-23T11:03:46.410Z,96842
2018-08-23T11:05:02.327Z,96841
2018-08-23T11:06:18.252Z,96837
2018-08-23T11:07:34.170Z,96843
2018-08-23T11:08:50.080Z,96838
2018-08-23T11:10:05.972Z,96832
2018-08-23T11:11:22.706Z,96830
2018-08-23T11:12:38.635Z,96830
2018-08-23T11:13:54.559Z,96830
2018-08-23T11:15:10.457Z,96832
2018-08-23T11:16:26.380Z,96829
2018-08-23T11:17:42.323Z,96827
2018-08-23T11:18:58.265Z,96823
2018-08-23T11:20:14.296Z,96825
2018-08-23T11:21:30.191Z,96823
2018-08-23T11:22:46.200Z,96820
2018-08-23T11:24:02.099Z,96819
2018-08-23T11:25:18.038Z,96818
2018-08-23T11:26:34.091Z,96813
2018-08-23T11:27:50.049Z,96816
2018-08-23T11:29:05.972Z,96815
2018-08-23T11:30:21.929Z,96808
2018-08-23T11:31:37.929Z,96808
2018-08-23T11:32:53.871Z,96805
2018-08-23T11:34:09.841Z,96800
2018-08-23T11:35:25.803Z,96799
2018-08-23T11:36:41.737Z,96800
2018-08-23T11:37:57.674Z,96792
2018-08-23T11:39:13.670Z,96793
2018-08-23T11:40:29.549Z,96788
2018-08-23T11:41:45.437Z,96791
2018-08-23T11:43:01.317Z,96790
2018-08-23T11:44:17.382Z,96784
2018-08-23T11:45:33.299Z,96773
2018-08-23T11:46:49.248Z,96773
2018-08-23T11:48:05.129Z,96769
2018-08-23T11:49:21.104Z,96770
2018-08-23T11:50:37.009Z,96765
2018-08-23T11:51:52.948Z,96755
2018-08-23T11:53:08.996Z,96758
2018-08-23T11:54:24.932Z,96759
2018-08-23T11:55:40.866Z,96754
2018-08-23T11:56:56.733Z,96759
2018-08-23T11:58:12.676Z,96752
2018-08-23T11:59:28.655Z,96757
2018-08-23T12:00:44.604Z,96755
2018-08-23T12:02:00.503Z,96754
2018-08-23T12:03:16.423Z,96752
2018-08-23T12:04:32.353Z,96752
2018-08-23T12:05:48.301Z,96750
2018-08-23T12:07:04.221Z,96746
2018-08-23T12:08:20.103Z,96743
2018-08-23T12:09:36.033Z,96741
2018-08-23T12:10:51.938Z,96738
2018-08-23T12:12:07.854Z,96735
2018-08-23T12:13:23.738Z,96732
2018-08-23T12:14:39.674Z,96731
2018-08-23T12:15:55.587Z,96732
2018-08-23T12:17:11.614Z,96726
2018-08-23T12:18:27.691Z,96729
2018-08-23T12:19:43.617Z,96723
2018-08-23T12:20:59.583Z,96728
2018-08-23T12:22:15.441Z,96723
2018-08-23T12:23:31.393Z,96726
2018-08-23T12:24:47.322Z,96725
2018-08-23T12:26:03.339Z,96726
2018-08-23T12:27:19.168Z,96726
2018-08-23T12:28:35.056Z,96725
2018-08-23T12:29:51.066Z,96726
2018-08-23T12:31:07.087Z,96719
2018-08-23T12:32:23.022Z,96722
2018-08-23T12:33:38.935Z,96715
2018-08-23T12:34:55.036Z,96718
2018-08-23T12:36:10.917Z,96710
2018-08-23T12:37:26.888Z,96707
2018-08-23T12:38:42.886Z,96704
2018-08-23T12:39:58.823Z,96699
2018-08-23T12:41:14.776Z,96695
2018-08-23T12:42:30.711Z,96700
2018-08-23T12:43:46.742Z,96691
2018-08-23T12:45:02.604Z,96693
2018-08-23T12:46:18.525Z,96688
2018-08-23T12:47:34.395Z,96686
2018-08-23T12:48:50.364Z,96682
2018-08-23T12:50:06.327Z,96685
2018-08-23T12:51:22.300Z,96680
2018-08-23T12:52:38.250Z,96683
2018-08-23T12:53:54.186Z,96681
2018-08-23T12:55:10.137Z,96683
2018-08-23T12:56:26.145Z,96682
2018-08-23T12:57:42.032Z,96679
2018-08-23T12:58:57.933Z,96678
2018-08-23T13:00:13.908Z,96683
2018-08-23T13:01:29.877Z,96686
2018-08-23T13:02:46.033Z,96683
2018-08-23T13:04:01.878Z,96686
2018-08-23T13:05:17.831Z,96682
2018-08-23T13:06:33.842Z,96684
2018-08-23T13:07:49.716Z,96681
2018-08-23T13:09:05.717Z,96682
2018-08-23T13:10:21.738Z,96681
2018-08-23T13:11:37.644Z,96682
2018-08-23T13:12:53.554Z,96683
2018-08-23T13:14:09.506Z,96682
2018-08-23T13:15:25.422Z,96684
2018-08-23T13:16:41.378Z,96690
2018-08-23T13:17:57.422Z,96684
2018-08-23T13:19:13.341Z,96685
2018-08-23T13:20:29.276Z,96680
2018-08-23T13:21:45.239Z,96683
2018-08-23T13:23:01.150Z,96679
2018-08-23T13:24:17.084Z,96679
2018-08-23T13:25:33.053Z,96677
2018-08-23T13:26:49.083Z,96675
2018-08-23T13:28:04.997Z,96675
2018-08-23T13:29:20.916Z,96675
2018-08-23T13:30:36.839Z,96674
2018-08-23T13:31:52.760Z,96675
2018-08-23T13:33:08.626Z,96672
2018-08-23T13:34:25.610Z,96673
2018-08-23T13:35:41.591Z,96668
2018-08-23T13:36:57.566Z,96668
2018-08-23T13:38:13.476Z,96668
2018-08-23T13:39:29.398Z,96666
2018-08-23T13:40:45.446Z,96675
2018-08-23T13:42:01.396Z,96667
2018-08-23T13:43:17.274Z,96664
2018-08-23T13:44:33.213Z,96665
2018-08-23T13:45:49.157Z,96666
2018-08-23T13:47:05.063Z,96668
2018-08-23T13:48:21.117Z,96669
2018-08-23T13:49:36.973Z,96670
2018-08-23T13:50:53.033Z,96666
2018-08-23T13:52:08.928Z,96663
2018-08-23T13:53:24.835Z,96661
2018-08-23T13:54:40.776Z,96659
2018-08-23T13:55:56.732Z,96659
2018-08-23T13:57:12.609Z,96659
2018-08-23T13:58:28.562Z,96648
2018-08-23T13:59:44.504Z,96643
2018-08-23T14:01:00.462Z,96638
2018-08-23T14:02:16.519Z,96634
2018-08-23T14:03:32.326Z,96631
2018-08-23T14:04:49.233Z,96631
2018-08-23T14:06:05.231Z,96632
2018-08-23T14:07:21.200Z,96630
2018-08-23T14:08:37.113Z,96638
2018-08-23T14:09:53.024Z,96652
2018-08-23T14:11:08.977Z,96642
2018-08-23T14:12:24.887Z,96637
2018-08-23T14:13:40.792Z,96637
2018-08-23T14:14:56.690Z,96635
2018-08-23T14:16:12.587Z,96631
2018-08-23T14:17:28.674Z,96635
2018-08-23T14:18:44.583Z,96628
2018-08-23T14:20:00.567Z,96622
2018-08-23T14:21:16.443Z,96622
2018-08-23T14:22:32.383Z,96618
2018-08-23T14:23:48.301Z,96616
2018-08-23T14:25:04.197Z,96620
2018-08-23T14:26:20.109Z,96624
2018-08-23T14:27:37.083Z,96627
2018-08-23T14:28:53.057Z,96629
2018-08-23T14:30:08.981Z,96626
2018-08-23T14:31:24.916Z,96630
2018-08-23T14:32:40.843Z,96633
2018-08-23T14:33:56.806Z,96633
2018-08-23T14:35:12.750Z,96640
2018-08-23T14:36:28.691Z,96646
2018-08-23T14:37:44.633Z,96652
2018-08-23T14:39:00.545Z,96654
2018-08-23T14:40:16.523Z,96665
2018-08-23T14:41:32.403Z,96668
2018-08-23T14:42:48.328Z,96671
2018-08-23T14:44:04.337Z,96681
2018-08-23T14:45:20.295Z,96679
2018-08-23T14:46:36.272Z,96670
2018-08-23T14:47:52.217Z,96675
2018-08-23T14:49:08.195Z,96656
2018-08-23T14:50:24.161Z,96647
2018-08-23T14:51:40.118Z,96660
2018-08-23T14:52:56.053Z,96657
2018-08-23T14:54:12.042Z,96655
2018-08-23T14:55:28.067Z,96656
2018-08-23T14:56:44.010Z,96658
2018-08-23T14:58:00.038Z,96655
2018-08-23T14:59:15.945Z,96657
2018-08-23T15:00:31.903Z,96663
2018-08-23T15:01:47.862Z,96663
2018-08-23T15:03:03.803Z,96668
2018-08-23T15:04:19.712Z,96671
2018-08-23T15:05:35.661Z,96672
2018-08-23T15:06:51.552Z,96668
2018-08-23T15:08:07.500Z,96664
2018-08-23T15:09:23.468Z,96664
2018-08-23T15:10:39.350Z,96656
2018-08-23T15:11:55.280Z,96649
2018-08-23T15:13:11.181Z,96647
2018-08-23T15:14:27.188Z,96648
2018-08-23T15:15:43.068Z,96650
2018-08-23T15:16:59.001Z,96658
2018-08-23T15:18:14.917Z,96663
2018-08-23T15:19:30.905Z,96673
2018-08-23T15:20:46.923Z,96693
2018-08-23T15:22:03.040Z,96723
2018-08-23T15:23:18.979Z,96766
2018-08-23T15:24:34.922Z,96805
2018-08-23T15:25:50.823Z,96808
2018-08-23T15:27:07.026Z,96809
2018-08-23T15:28:22.752Z,96769
2018-08-23T15:29:38.781Z,96796
2018-08-23T15:30:54.684Z,96847
2018-08-23T15:32:10.614Z,96840
2018-08-23T15:33:26.548Z,96825
2018-08-23T15:34:42.461Z,96792
2018-08-23T15:35:58.375Z,96757
2018-08-23T15:37:14.324Z,96718
2018-08-23T15:38:30.308Z,96707
2018-08-23T15:39:46.252Z,96698
2018-08-23T15:41:02.219Z,96703
2018-08-23T15:42:18.160Z,96716
2018-08-23T15:43:34.150Z,96708
2018-08-23T15:44:50.154Z,96712
2018-08-23T15:46:06.060Z,96714
2018-08-23T15:47:22.038Z,96712
2018-08-23T15:48:37.990Z,96703
2018-08-23T15:49:53.967Z,96707
2018-08-23T15:51:10.035Z,96705
2018-08-23T15:52:25.968Z,96696
2018-08-23T15:53:41.967Z,96691
2018-08-23T15:54:58.041Z,96685
2018-08-23T15:56:13.941Z,96679
2018-08-23T15:57:29.823Z,96682
2018-08-23T15:58:45.723Z,96683
2018-08-23T16:00:01.719Z,96690
2018-08-23T16:01:17.764Z,96686
2018-08-23T16:02:33.759Z,96692
2018-08-23T16:03:49.730Z,96694
2018-08-23T16:05:06.697Z,96705
2018-08-23T16:06:22.648Z,96702
2018-08-23T16:07:38.646Z,96706
2018-08-23T16:08:54.619Z,96702
2018-08-23T16:10:10.636Z,96703
2018-08-23T16:11:26.536Z,96702
2018-08-23T16:12:42.478Z,96700
2018-08-23T16:13:58.460Z,96698
2018-08-23T16:15:14.426Z,96704
2018-08-23T16:16:30.372Z,96698
2018-08-23T16:17:46.304Z,96691
2018-08-23T16:19:02.259Z,96689
2018-08-23T16:20:18.293Z,96693